createdAt,value
2019-04-14T00:01:41.041Z,39.07
2019-04-14T00:04:13.987Z,39.93
2019-04-14T00:06:42.514Z,38.90
2019-04-14T00:09:14.081Z,39.93
2019-04-14T00:11:40.988Z,38.50
2019-04-14T00:14:09.579Z,36.63
2019-04-14T00:16:38.030Z,35.50
2019-04-14T00:19:06.471Z,37.40
2019-04-14T00:21:34.608Z,34.97
2019-04-14T00:24:03.006Z,32.77
2019-04-14T00:26:31.651Z,30.90
2019-04-14T00:29:00.063Z,31.93
2019-04-14T00:31:28.607Z,33.40
2019-04-14T00:33:58.629Z,36.87
2019-04-14T00:36:45.964Z,33.10
2019-04-14T00:39:18.770Z,31.00
2019-04-14T00:41:55.625Z,41.23
2019-04-14T00:44:40.862Z,36.30
2019-04-14T00:47:22.079Z,39.13
2019-04-14T00:49:50.772Z,36.77
2019-04-14T00:52:18.965Z,35.37
2019-04-14T00:54:47.691Z,32.87
2019-04-14T00:57:15.876Z,43.20
2019-04-14T00:59:44.056Z,38.53
2019-04-14T01:02:12.396Z,37.27
2019-04-14T01:04:40.491Z,37.47
2019-04-14T01:07:08.767Z,41.67
2019-04-14T01:09:37.009Z,39.73
2019-04-14T01:12:04.581Z,43.60
2019-04-14T01:14:32.051Z,42.03
2019-04-14T01:17:00.456Z,35.23
2019-04-14T01:19:28.733Z,43.57
2019-04-14T01:21:56.696Z,43.83
2019-04-14T01:24:24.982Z,40.30
2019-04-14T01:26:52.888Z,41.23
2019-04-14T01:29:20.930Z,36.33
2019-04-14T01:31:49.341Z,38.13
2019-04-14T01:34:17.319Z,38.47
2019-04-14T01:36:45.313Z,40.40
2019-04-14T01:39:13.312Z,39.43
2019-04-14T01:41:41.104Z,41.47
2019-04-14T01:44:09.133Z,37.37
2019-04-14T01:46:37.381Z,42.53
2019-04-14T01:49:05.098Z,42.60
2019-04-14T01:51:50.755Z,40.40
2019-04-14T01:54:38.766Z,42.33
2019-04-14T01:57:15.400Z,45.97
2019-04-14T01:59:43.819Z,41.10
2019-04-14T02:02:14.155Z,42.83
2019-04-14T02:04:42.716Z,47.67
2019-04-14T02:07:10.829Z,45.40
2019-04-14T02:09:40.182Z,39.10
2019-04-14T02:12:08.469Z,44.77
2019-04-14T02:14:36.523Z,41.90
2019-04-14T02:17:04.959Z,46.97
2019-04-14T02:19:33.119Z,42.97
2019-04-14T02:22:00.714Z,40.90
2019-04-14T02:24:28.921Z,41.67
2019-04-14T02:26:56.985Z,42.93
2019-04-14T02:29:25.506Z,47.13
2019-04-14T02:33:13.523Z,42.53
2019-04-14T02:34:47.977Z,45.40
2019-04-14T02:39:54.043Z,44.93
2019-04-14T02:42:34.312Z,46.27
2019-04-14T02:44:43.979Z,45.50
2019-04-14T02:47:38.561Z,54.87
2019-04-14T02:49:45.596Z,46.67
2019-04-14T02:52:11.977Z,49.50
2019-04-14T02:57:20.457Z,43.50
2019-04-14T02:59:42.946Z,49.67
2019-04-14T03:10:16.378Z,46.07
2019-04-14T03:12:31.662Z,40.77
2019-04-14T03:14:53.700Z,41.63
2019-04-14T03:18:02.418Z,45.10
2019-04-14T03:20:49.951Z,41.70
2019-04-14T03:23:17.141Z,41.87
2019-04-14T03:25:34.307Z,39.20
2019-04-14T03:28:36.386Z,40.10
2019-04-14T03:31:30.483Z,43.70
2019-04-14T03:38:55.023Z,34.93
2019-04-14T03:41:13.698Z,41.83
2019-04-14T03:43:33.745Z,42.70
2019-04-14T03:51:00.673Z,41.33
2019-04-14T03:53:30.703Z,38.00
2019-04-14T03:56:14.012Z,41.03
2019-04-14T03:58:39.954Z,40.40
2019-04-14T04:01:08.268Z,45.27
2019-04-14T04:03:36.813Z,40.40
2019-04-14T04:06:05.280Z,37.40
2019-04-14T04:08:33.401Z,44.73
2019-04-14T04:11:02.091Z,38.27
2019-04-14T04:13:30.224Z,40.53
2019-04-14T04:16:12.094Z,40.57
2019-04-14T04:18:50.909Z,34.07
2019-04-14T04:21:18.510Z,36.50
2019-04-14T04:24:12.862Z,33.83
2019-04-14T04:26:56.053Z,32.20
2019-04-14T04:29:33.020Z,38.00
2019-04-14T04:32:07.811Z,36.10
2019-04-14T04:34:51.259Z,36.50
2019-04-14T04:37:41.177Z,33.40
2019-04-14T04:40:13.623Z,30.13
2019-04-14T04:42:41.633Z,34.50
2019-04-14T04:45:10.379Z,35.70
2019-04-14T04:47:38.363Z,30.80
2019-04-14T04:50:06.538Z,34.80
2019-04-14T04:52:34.353Z,32.57
2019-04-14T04:55:02.585Z,29.60
2019-04-14T04:57:30.634Z,33.83
2019-04-14T04:59:58.154Z,37.57
2019-04-14T05:02:26.670Z,35.67
2019-04-14T05:04:54.785Z,36.53
2019-04-14T05:07:23.111Z,29.27
2019-04-14T05:10:09.052Z,32.37
2019-04-14T05:12:48.532Z,37.40
2019-04-14T05:15:33.933Z,30.03
2019-04-14T05:18:02.729Z,35.47
2019-04-14T05:20:31.370Z,30.87
2019-04-14T05:22:59.371Z,36.93
2019-04-14T05:25:27.589Z,35.70
2019-04-14T05:27:55.849Z,33.83
2019-04-14T05:30:24.304Z,36.77
2019-04-14T05:32:52.226Z,32.03
2019-04-14T05:35:20.596Z,32.70
2019-04-14T05:37:48.666Z,33.50
2019-04-14T05:40:16.792Z,32.93
2019-04-14T05:42:45.085Z,31.93
2019-04-14T05:45:13.331Z,36.10
2019-04-14T05:47:41.489Z,29.10
2019-04-14T05:50:09.543Z,33.07
2019-04-14T05:52:38.162Z,36.57
2019-04-14T05:55:06.632Z,35.80
2019-04-14T05:57:35.300Z,32.63
2019-04-14T06:00:04.532Z,30.80
2019-04-14T06:02:32.149Z,28.97
2019-04-14T06:05:01.540Z,29.33
2019-04-14T06:07:28.924Z,30.03
2019-04-14T06:09:56.157Z,31.83
2019-04-14T06:12:23.349Z,29.60
2019-04-14T06:14:51.097Z,34.03
2019-04-14T06:17:18.872Z,29.10
2019-04-14T06:19:46.252Z,28.60
2019-04-14T06:22:13.765Z,29.50
2019-04-14T06:24:41.534Z,27.47
2019-04-14T06:27:08.968Z,31.00
2019-04-14T06:29:36.289Z,31.30
2019-04-14T06:32:25.578Z,26.83
2019-04-14T06:35:10.278Z,34.03
2019-04-14T06:37:57.148Z,29.70
2019-04-14T06:40:25.481Z,25.97
2019-04-14T06:42:52.802Z,25.33
2019-04-14T06:45:20.213Z,26.47
2019-04-14T06:47:47.681Z,30.97
2019-04-14T06:50:15.196Z,24.90
2019-04-14T06:52:42.580Z,26.53
2019-04-14T06:55:09.937Z,26.83
2019-04-14T06:57:37.240Z,26.40
2019-04-14T07:00:05.070Z,28.60
2019-04-14T07:02:32.560Z,25.93
2019-04-14T07:04:59.961Z,27.53
2019-04-14T07:07:27.368Z,24.67
2019-04-14T07:09:54.807Z,29.37
2019-04-14T07:12:22.337Z,29.83
2019-04-14T07:14:49.620Z,30.47
2019-04-14T07:17:17.422Z,30.33
2019-04-14T07:19:44.781Z,33.17
2019-04-14T07:22:12.000Z,31.50
2019-04-14T07:24:39.361Z,27.57
2019-04-14T07:27:07.353Z,30.40
2019-04-14T07:29:41.239Z,30.07
2019-04-14T07:32:18.578Z,33.37
2019-04-14T07:35:08.512Z,32.17
2019-04-14T07:37:58.250Z,27.37
2019-04-14T07:40:43.954Z,34.80
2019-04-14T07:43:29.385Z,36.13
2019-04-14T07:46:08.400Z,41.63
2019-04-14T07:48:41.833Z,37.43
2019-04-14T07:51:37.487Z,34.10
2019-04-14T07:54:20.222Z,38.60
2019-04-14T07:57:01.785Z,41.90
2019-04-14T07:59:49.206Z,42.97
2019-04-14T08:02:29.853Z,37.67
2019-04-14T08:05:01.202Z,45.00
2019-04-14T08:07:28.682Z,49.47
2019-04-14T08:09:56.038Z,40.00
2019-04-14T08:12:23.513Z,39.47
2019-04-14T08:14:52.054Z,50.87
2019-04-14T08:17:19.366Z,40.80
2019-04-14T08:19:46.632Z,41.30
2019-04-14T08:22:14.090Z,39.83
2019-04-14T08:24:41.305Z,47.40
2019-04-14T08:27:08.541Z,52.83
2019-04-14T08:29:35.848Z,50.60
2019-04-14T08:32:03.346Z,43.43
2019-04-14T08:34:30.685Z,49.33
2019-04-14T08:36:58.209Z,45.67
2019-04-14T08:39:25.505Z,50.43
2019-04-14T08:42:08.128Z,48.33
2019-04-14T08:44:43.314Z,47.50
2019-04-14T08:47:28.892Z,45.53
2019-04-14T08:50:00.006Z,50.90
2019-04-14T08:52:55.709Z,46.60
2019-04-14T08:55:32.068Z,45.17
2019-04-14T08:58:11.478Z,52.60
2019-04-14T09:00:58.426Z,50.03
2019-04-14T09:04:03.229Z,49.80
2019-04-14T09:06:37.334Z,49.43
2019-04-14T09:09:27.959Z,47.53
2019-04-14T09:12:01.028Z,47.93
2019-04-14T09:14:28.253Z,44.63
2019-04-14T09:16:56.359Z,46.87
2019-04-14T09:19:24.117Z,47.10
2019-04-14T09:21:51.333Z,48.60
2019-04-14T09:24:18.627Z,47.03
2019-04-14T09:26:45.861Z,47.53
2019-04-14T09:29:13.224Z,50.03
2019-04-14T09:31:40.569Z,51.83
2019-04-14T09:34:07.937Z,55.43
2019-04-14T09:36:35.287Z,58.07
2019-04-14T09:39:04.200Z,56.10
2019-04-14T09:41:31.481Z,57.07
2019-04-14T09:43:58.704Z,61.27
2019-04-14T09:46:25.911Z,62.67
2019-04-14T09:48:53.283Z,63.43
2019-04-14T09:51:20.504Z,62.07
2019-04-14T09:53:47.866Z,69.20
2019-04-14T09:56:15.216Z,76.23
2019-04-14T09:58:42.657Z,70.43
2019-04-14T10:01:10.041Z,73.30
2019-04-14T10:03:37.352Z,81.03
2019-04-14T10:06:04.881Z,76.30
2019-04-14T10:08:32.556Z,71.90
2019-04-14T10:10:59.872Z,72.07
2019-04-14T10:13:27.232Z,67.23
2019-04-14T10:15:54.604Z,68.27
2019-04-14T10:18:22.951Z,73.97
2019-04-14T10:20:50.234Z,75.43
2019-04-14T10:23:17.612Z,77.43
2019-04-14T10:25:45.206Z,71.53
2019-04-14T10:28:12.414Z,78.77
2019-04-14T10:30:39.842Z,73.90
2019-04-14T10:33:07.305Z,78.40
2019-04-14T10:35:34.523Z,85.10
2019-04-14T10:38:01.933Z,76.57
2019-04-14T10:40:29.471Z,87.30
2019-04-14T10:42:56.834Z,82.57
2019-04-14T10:45:24.061Z,79.87
2019-04-14T10:47:51.458Z,79.50
2019-04-14T10:50:30.145Z,84.43
2019-04-14T10:52:48.183Z,76.00
2019-04-14T10:55:15.473Z,85.37
2019-04-14T10:57:42.904Z,80.00
2019-04-14T11:00:13.517Z,90.63
2019-04-14T11:02:40.848Z,78.07
2019-04-14T11:05:08.557Z,82.67
2019-04-14T11:07:35.957Z,78.17
2019-04-14T11:10:04.184Z,78.57
2019-04-14T11:12:31.380Z,73.90
2019-04-14T11:14:58.784Z,78.03
2019-04-14T11:17:26.180Z,94.83
2019-04-14T11:19:54.380Z,80.60
2019-04-14T11:22:21.908Z,82.17
2019-04-14T11:24:49.137Z,88.03
2019-04-14T11:27:16.548Z,90.73
2019-04-14T11:29:44.213Z,74.80
2019-04-14T11:32:40.442Z,87.47
2019-04-14T11:35:24.106Z,85.40
2019-04-14T11:38:02.333Z,87.63
2019-04-14T11:40:34.697Z,83.27
2019-04-14T11:43:02.288Z,82.97
2019-04-14T11:45:29.532Z,99.17
2019-04-14T11:47:56.905Z,85.03
2019-04-14T11:50:24.260Z,95.27
2019-04-14T11:52:51.485Z,88.07
2019-04-14T11:55:18.696Z,87.70
2019-04-14T11:57:45.960Z,80.00
2019-04-14T12:00:33.103Z,84.13
2019-04-14T12:03:25.890Z,94.10
2019-04-14T12:06:12.958Z,88.63
2019-04-14T12:08:45.845Z,84.77
2019-04-14T12:11:13.247Z,91.57
2019-04-14T12:13:40.463Z,88.57
2019-04-14T12:16:07.841Z,96.67
2019-04-14T12:18:35.120Z,94.63
2019-04-14T12:21:02.533Z,93.23
2019-04-14T12:23:30.218Z,97.13
2019-04-14T12:26:05.242Z,90.00
2019-04-14T12:28:26.865Z,85.57
2019-04-14T12:30:55.386Z,95.17
2019-04-14T12:33:22.824Z,98.63
2019-04-14T12:35:50.065Z,98.17
2019-04-14T12:38:17.369Z,87.53
2019-04-14T12:40:44.727Z,95.37
2019-04-14T12:43:37.582Z,86.23
2019-04-14T12:46:30.501Z,87.40
2019-04-14T12:49:08.544Z,95.53
2019-04-14T12:51:39.165Z,86.07
2019-04-14T12:54:06.409Z,93.27
2019-04-14T12:56:33.788Z,99.37
2019-04-14T12:59:23.086Z,88.17
2019-04-14T13:01:57.892Z,73.27
2019-04-14T13:04:25.157Z,86.57
2019-04-14T13:06:52.419Z,82.60
2019-04-14T13:09:19.713Z,81.03
2019-04-14T13:11:47.082Z,78.23
2019-04-14T13:14:14.554Z,85.17
2019-04-14T13:16:41.860Z,73.60
2019-04-14T13:19:09.129Z,90.50
2019-04-14T13:21:36.454Z,74.37
2019-04-14T13:24:05.156Z,77.00
2019-04-14T13:26:32.813Z,77.50
2019-04-14T13:29:00.253Z,73.00
2019-04-14T13:31:27.932Z,77.60
2019-04-14T13:33:57.062Z,72.30
2019-04-14T13:36:24.344Z,80.57
2019-04-14T13:38:52.169Z,95.10
2019-04-14T13:41:19.668Z,87.40
2019-04-14T13:43:47.036Z,80.27
2019-04-14T13:46:14.349Z,83.57
2019-04-14T13:48:42.081Z,78.90
2019-04-14T13:51:09.723Z,76.93
2019-04-14T13:53:37.037Z,75.57
2019-04-14T13:56:04.317Z,77.17
2019-04-14T13:58:31.680Z,77.40
2019-04-14T14:00:59.005Z,77.60
2019-04-14T14:03:26.257Z,69.80
2019-04-14T14:05:53.573Z,76.20
2019-04-14T14:08:20.921Z,83.17
2019-04-14T14:10:48.271Z,82.50
2019-04-14T14:13:34.878Z,72.97
2019-04-14T14:16:16.258Z,71.87
2019-04-14T14:18:48.394Z,76.30
2019-04-14T14:21:40.773Z,78.67
2019-04-14T14:24:31.000Z,93.87
2019-04-14T14:26:58.613Z,78.83
2019-04-14T14:29:26.129Z,81.20
2019-04-14T14:31:53.961Z,75.60
2019-04-14T14:34:22.143Z,80.93
2019-04-14T14:36:49.603Z,73.80
2019-04-14T14:39:19.818Z,80.33
2019-04-14T14:41:47.161Z,74.13
2019-04-14T14:44:14.402Z,69.77
2019-04-14T14:46:57.277Z,71.57
2019-04-14T14:49:30.613Z,75.60
2019-04-14T14:52:05.344Z,70.97
2019-04-14T14:54:32.837Z,80.60
2019-04-14T14:57:00.105Z,79.13
2019-04-14T14:59:27.330Z,83.20
2019-04-14T15:01:54.679Z,72.50
2019-04-14T15:04:21.944Z,78.20
2019-04-14T15:06:49.447Z,77.03
2019-04-14T15:09:16.729Z,75.67
2019-04-14T15:11:44.261Z,78.40
2019-04-14T15:14:11.612Z,76.13
2019-04-14T15:16:38.945Z,86.37
2019-04-14T15:19:06.369Z,74.73
2019-04-14T15:21:33.605Z,82.90
2019-04-14T15:24:01.132Z,79.47
2019-04-14T15:26:28.677Z,77.37
2019-04-14T15:28:55.965Z,77.60
2019-04-14T15:31:23.302Z,70.87
2019-04-14T15:33:50.865Z,79.27
2019-04-14T15:36:18.086Z,77.90
2019-04-14T15:38:45.348Z,83.67
2019-04-14T15:41:12.659Z,76.70
2019-04-14T15:43:40.294Z,75.33
2019-04-14T15:46:07.657Z,66.97
2019-04-14T15:48:34.853Z,73.10
2019-04-14T15:51:02.236Z,70.53
2019-04-14T15:53:37.865Z,67.90
2019-04-14T15:55:59.412Z,74.50
2019-04-14T15:58:44.968Z,71.93
2019-04-14T16:01:30.291Z,72.47
2019-04-14T16:04:05.907Z,70.40
2019-04-14T16:06:58.485Z,66.80
2019-04-14T16:09:47.897Z,68.80
2019-04-14T16:12:25.134Z,75.10
2019-04-14T16:15:14.769Z,66.20
2019-04-14T16:17:47.397Z,71.60
2019-04-14T16:20:18.050Z,67.33
2019-04-14T16:22:45.317Z,69.07
2019-04-14T16:25:12.684Z,69.70
2019-04-14T16:28:02.415Z,76.37
2019-04-14T16:30:49.320Z,70.57
2019-04-14T16:33:30.736Z,69.03
2019-04-14T16:35:58.262Z,63.07
2019-04-14T16:38:25.639Z,66.07
2019-04-14T16:40:52.897Z,68.23
2019-04-14T16:43:20.134Z,77.13
2019-04-14T16:45:47.591Z,62.53
2019-04-14T16:48:15.149Z,66.80
2019-04-14T16:50:42.493Z,72.20
2019-04-14T16:53:20.628Z,68.30
2019-04-14T16:55:58.325Z,68.60
2019-04-14T16:58:31.034Z,69.27
2019-04-14T17:01:01.756Z,72.10
2019-04-14T17:03:29.251Z,78.67
2019-04-14T17:05:56.517Z,74.10
2019-04-14T17:08:23.994Z,65.40
2019-04-14T17:10:51.463Z,80.37
2019-04-14T17:13:18.881Z,76.37
2019-04-14T17:15:57.303Z,67.33
2019-04-14T17:18:44.159Z,70.77
2019-04-14T17:21:33.553Z,68.20
2019-04-14T17:24:16.378Z,73.43
2019-04-14T17:26:42.341Z,71.13
2019-04-14T17:29:23.822Z,83.57
2019-04-14T17:32:09.379Z,75.57
2019-04-14T17:34:43.217Z,82.17
2019-04-14T17:37:39.072Z,73.20
2019-04-14T17:40:18.885Z,77.97
2019-04-14T17:42:54.522Z,78.23
2019-04-14T17:45:42.445Z,75.23
2019-04-14T17:48:21.581Z,80.57
2019-04-14T17:50:54.077Z,71.87
2019-04-14T17:53:53.273Z,76.30
2019-04-14T17:56:28.581Z,85.67
2019-04-14T17:59:30.350Z,91.77
2019-04-14T18:02:23.280Z,81.17
2019-04-14T18:05:13.165Z,76.87
2019-04-14T18:07:48.205Z,88.13
2019-04-14T18:10:35.120Z,87.57
2019-04-14T18:13:10.897Z,83.17
2019-04-14T18:15:56.534Z,78.57
2019-04-14T18:18:30.889Z,86.37
2019-04-14T18:21:01.740Z,88.53
2019-04-14T18:23:29.009Z,82.73
2019-04-14T18:25:56.331Z,95.43
2019-04-14T18:28:33.840Z,86.90
2019-04-14T18:31:29.810Z,74.07
2019-04-14T18:34:07.659Z,82.70
2019-04-14T18:36:39.248Z,79.93
2019-04-14T18:39:30.213Z,98.23
2019-04-14T18:42:16.169Z,78.70
2019-04-14T18:44:52.491Z,88.60
2019-04-14T18:47:23.713Z,83.83
2019-04-14T18:50:13.540Z,90.20
2019-04-14T18:53:09.686Z,81.07
2019-04-14T18:55:42.828Z,90.10
2019-04-14T18:58:25.838Z,83.60
2019-04-14T19:00:58.541Z,83.27
2019-04-14T19:03:25.797Z,81.00
2019-04-14T19:05:53.184Z,86.27
2019-04-14T19:08:20.640Z,92.43
2019-04-14T19:11:01.665Z,94.90
2019-04-14T19:13:31.009Z,83.53
2019-04-14T19:16:05.770Z,83.10
2019-04-14T19:18:42.454Z,84.60
2019-04-14T19:21:22.213Z,88.60
2019-04-14T19:23:50.745Z,92.40
2019-04-14T19:26:18.325Z,102.53
2019-04-14T19:28:45.584Z,91.13
2019-04-14T19:31:14.160Z,89.83
2019-04-14T19:33:41.478Z,86.37
2019-04-14T19:36:08.903Z,88.33
2019-04-14T19:38:36.386Z,94.10
2019-04-14T19:41:06.216Z,86.90
2019-04-14T19:43:33.625Z,85.00
2019-04-14T19:46:01.172Z,84.13
2019-04-14T19:48:30.080Z,89.37
2019-04-14T19:50:57.626Z,93.70
2019-04-14T19:53:24.977Z,94.70
2019-04-14T19:55:52.370Z,100.27
2019-04-14T19:58:19.828Z,91.60
2019-04-14T20:00:47.576Z,90.00
2019-04-14T20:03:15.172Z,103.23
2019-04-14T20:05:42.580Z,106.00
2019-04-14T20:08:22.749Z,89.53
2019-04-14T20:10:50.157Z,96.40
2019-04-14T20:13:17.577Z,96.00
2019-04-14T20:16:00.483Z,98.87
2019-04-14T20:18:44.453Z,99.83
2019-04-14T20:21:16.868Z,101.03
2019-04-14T20:23:52.289Z,98.00
2019-04-14T20:26:51.402Z,101.03
2019-04-14T20:29:22.513Z,119.63
2019-04-14T20:32:00.664Z,102.77
2019-04-14T20:34:27.937Z,101.40
2019-04-14T20:36:55.294Z,99.30
2019-04-14T20:39:24.421Z,99.37
2019-04-14T20:41:51.769Z,100.03
2019-04-14T20:44:19.193Z,99.60
2019-04-14T20:46:46.539Z,96.70
2019-04-14T20:49:13.897Z,90.33
2019-04-14T20:51:41.248Z,91.63
2019-04-14T20:54:08.508Z,96.60
2019-04-14T20:56:35.760Z,103.03
2019-04-14T20:59:03.325Z,92.97
2019-04-14T21:01:32.808Z,98.80
2019-04-14T21:04:19.868Z,96.93
2019-04-14T21:06:54.641Z,89.20
2019-04-14T21:09:28.209Z,91.30
2019-04-14T21:11:59.876Z,92.70
2019-04-14T21:14:33.178Z,101.10
2019-04-14T21:17:05.993Z,106.47
2019-04-14T21:19:42.233Z,87.33
2019-04-14T21:22:22.991Z,87.70
2019-04-14T21:24:57.076Z,96.50
2019-04-14T21:27:35.933Z,94.37
2019-04-14T21:30:19.436Z,93.93
2019-04-14T21:33:12.125Z,98.37
2019-04-14T21:36:11.073Z,90.13
2019-04-14T21:39:00.953Z,91.70
2019-04-14T21:41:29.460Z,93.13
2019-04-14T21:43:56.767Z,100.83
2019-04-14T21:46:24.013Z,94.97
2019-04-14T21:48:51.212Z,94.80
2019-04-14T21:51:18.450Z,93.97
2019-04-14T21:53:46.857Z,100.43
2019-04-14T21:56:14.179Z,91.73
2019-04-14T21:59:13.229Z,94.60
2019-04-14T22:02:12.377Z,90.17
2019-04-14T22:04:58.045Z,94.07
2019-04-14T22:07:37.274Z,97.93
2019-04-14T22:10:31.937Z,106.07
2019-04-14T22:12:59.201Z,105.13
2019-04-14T22:15:26.445Z,92.60
2019-04-14T22:17:53.892Z,95.97
2019-04-14T22:20:21.242Z,97.20
2019-04-14T22:22:48.547Z,93.00
2019-04-14T22:25:15.856Z,94.20
2019-04-14T22:27:43.096Z,108.53
2019-04-14T22:30:10.823Z,95.27
2019-04-14T22:32:38.118Z,94.90
2019-04-14T22:35:05.643Z,98.07
2019-04-14T22:37:33.009Z,95.00
2019-04-14T22:40:00.364Z,99.10
2019-04-14T22:42:27.581Z,108.63
2019-04-14T22:44:55.028Z,93.60
2019-04-14T22:47:22.396Z,93.57
2019-04-14T22:49:49.652Z,90.77
2019-04-14T22:52:16.860Z,92.57
2019-04-14T22:54:44.221Z,91.60
2019-04-14T22:57:11.424Z,102.93
2019-04-14T22:59:38.633Z,98.13
2019-04-14T23:02:12.233Z,98.47
2019-04-14T23:04:45.600Z,88.30
2019-04-14T23:07:35.547Z,98.13
2019-04-14T23:10:19.484Z,98.63
2019-04-14T23:13:06.336Z,98.20
2019-04-14T23:15:55.572Z,102.43
2019-04-14T23:18:48.653Z,96.13
2019-04-14T23:21:30.816Z,95.53
2019-04-14T23:24:18.888Z,96.13
2019-04-14T23:26:52.246Z,99.07
2019-04-14T23:29:15.529Z,89.00
2019-04-14T23:31:42.913Z,97.60
2019-04-14T23:34:11.008Z,98.37
2019-04-14T23:36:38.308Z,94.30
2019-04-14T23:39:08.108Z,89.30
2019-04-14T23:41:35.345Z,91.67
2019-04-14T23:44:02.745Z,87.13
2019-04-14T23:46:29.990Z,91.47
2019-04-14T23:48:57.337Z,91.17
2019-04-14T23:51:24.816Z,93.63
2019-04-14T23:53:52.056Z,96.07
2019-04-14T23:56:19.248Z,88.90
2019-04-14T23:58:46.500Z,93.30
